Latest Weather Observations for Cooma Airport

IDN60801

Issued at 12:32 pm EDT Thursday 21 November 2019 (issued every 10 minutes, with the page automatically refreshed every 10 minutes)

About weather observations | Map of weather stations | Latest weather observations for NSW | Other Formats
Station Details ID: 070217 Name: COOMA AIRPORT AWS Lat: -36.29 Lon: 148.97 Height: 930.0 m
Data from the previous 72 hours. | See also: Recent months at Cooma Airport
Date/Time
EDT
Temp
°C
App
Temp
°C
Dew
Point
°C
Rel
Hum
%
Delta-T
°C
Wind Press
QNH
hPa
Press
MSL
hPa
Rain since
9am
mm
Dir  Spd
km/h
Gust
km/h
Spd
kts
Gust
kts
21/12:30pm 33.9 24.6 -2.0 10 17.8 NNW 37 54 20 29 1013.9 1011.5 0.0
21/12:12pm 34.1 25.2 -1.8 10 17.9 NW 35 56 19 30 1014.1 1011.7 0.0
21/12:00pm 33.4 24.5 -2.3 10 17.5 NW 35 48 19 26 1014.2 1011.8 0.0
21/11:30am 33.8 24.5 0.5 12 17.2 N 39 61 21 33 1014.6 1012.1 0.0
21/11:05am 32.8 24.9 0.8 13 16.5 NNW 32 50 17 27 1014.9 1012.5 0.0
21/11:00am 32.8 24.7 0.8 13 16.5 NNW 33 46 18 25 1015.0 1012.6 0.0
21/10:30am 31.7 24.7 1.9 15 15.5 N 28 48 15 26 1015.1 1012.7 0.0
21/10:00am 30.9 24.8 3.0 17 14.7 N 24 32 13 17 1015.6 1013.1 0.0
21/09:30am 28.1 22.3 6.2 25 12.0 NE 26 33 14 18 1015.9 1013.5 0.0
21/09:00am 26.7 20.9 6.2 27 11.2 NE 26 30 14 16 1016.3 1013.9 0.0
21/08:30am 23.7 18.0 6.5 33 9.3 NE 26 30 14 16 1016.5 1014.1 0.0
21/08:00am 21.9 17.0 7.0 38 8.0 NE 22 28 12 15 1016.7 1014.2 0.0
21/07:30am 18.9 14.8 8.6 51 5.6 NE 20 24 11 13 1016.7 1014.2 0.0
21/07:00am 16.3 12.4 8.5 60 4.2 NE 19 20 10 11 1016.5 1014.1 0.0
21/06:30am 15.0 10.7 8.0 63 3.7 NE 20 24 11 13 1016.5 1014.1 0.0
21/06:00am 13.9 9.7 8.3 69 2.9 NE 20 20 11 11 1016.4 1014.0 0.0
21/05:30am 13.6 9.4 8.2 70 2.8 NE 20 22 11 12 1016.0 1013.6 0.0
21/05:00am 12.6 8.9 8.1 74 2.3 NNE 17 20 9 11 1016.0 1013.6 0.0
21/04:30am 12.7 8.6 8.0 73 2.4 NNE 19 20 10 11 1015.9 1013.5 0.0
21/04:00am 13.4 9.4 8.3 71 2.7 NE 19 20 10 11 1016.1 1013.7 0.0
21/03:30am 13.4 9.7 8.0 70 2.8 NNE 17 20 9 11 1016.1 1013.7 0.0
21/03:00am 13.8 9.6 8.4 70 2.8 NNE 20 22 11 12 1016.1 1013.7 0.0
21/02:30am 14.5 10.4 8.7 68 3.1 NE 20 24 11 13 1016.3 1013.9 0.0
21/02:00am 14.3 10.2 8.7 69 3.0 NE 20 22 11 12 1016.4 1014.0 0.0
21/01:30am 14.8 10.0 8.7 67 3.2 NE 24 24 13 13 1016.9 1014.5 0.0
21/01:00am 14.6 10.5 8.8 68 3.1 NE 20 24 11 13 1017.0 1014.6 0.0
21/12:30am 13.6 9.1 8.4 71 2.7 NE 22 24 12 13 1017.2 1014.8 0.0
21/12:00am 13.9 10.5 9.1 73 2.6 NNE 17 19 9 10 1017.4 1015.0 0.0
 
Date/Time
EDT
Temp
°C
App
Temp
°C
Dew
Point
°C
Rel
Hum
%
Delta-T
°C
Wind Press
QNH
hPa
Press
MSL
hPa
Rain since
9am
mm
Dir  Spd
km/h
Gust
km/h
Spd
kts
Gust
kts
20/11:30pm 14.3 11.1 8.5 68 3.1 NE 15 17 8 9 1017.6 1015.2 0.0
20/11:00pm 15.1 12.0 9.0 67 3.3 NE 15 19 8 10 1017.4 1015.0 0.0
20/10:30pm 15.7 12.4 9.4 66 3.4 NE 17 19 9 10 1017.6 1015.2 0.0
20/10:00pm 15.9 13.0 9.6 66 3.4 NNE 15 17 8 9 1017.6 1015.2 0.0
20/09:30pm 16.9 13.9 9.1 60 4.2 NNE 15 17 8 9 1017.5 1015.1 0.0
20/09:00pm 19.1 15.8 9.6 54 5.3 NE 17 20 9 11 1017.1 1014.7 0.0
20/08:30pm 20.1 16.3 9.7 51 5.8 ENE 20 26 11 14 1017.0 1014.6 0.0
20/08:00pm 21.5 16.7 8.7 44 7.1 E 24 30 13 16 1016.8 1014.4 0.0
20/07:30pm 23.5 18.4 7.6 36 8.7 NE 24 32 13 17 1016.5 1014.1 0.0
20/07:00pm 26.7 21.1 5.6 26 11.4 ENE 24 32 13 17 1015.7 1013.2 0.0
20/06:30pm 28.9 24.4 -3.3 12 15.1 SSE 11 20 6 11 1015.2 1012.8 0.0
20/06:00pm 29.2 24.2 -4.3 11 15.4 SE 13 22 7 12 1015.1 1012.7 0.0
20/05:30pm 29.9 25.3 -3.7 11 15.7 S 11 20 6 11 1015.0 1012.6 0.0
20/05:00pm 30.0 23.9 -3.6 11 15.8 SSE 19 30 10 16 1014.9 1012.5 0.0
20/04:30pm 29.6 24.9 -1.7 13 15.1 SSW 13 19 7 10 1015.0 1012.6 0.0
20/04:00pm 29.7 24.5 -2.7 12 15.4 SSW 15 28 8 15 1015.2 1012.8 0.0
20/03:30pm 29.4 22.8 -2.9 12 15.3 SSW 22 32 12 17 1015.3 1012.9 0.0
20/03:00pm 28.9 23.9 -4.5 11 15.3 SSW 13 22 7 12 1015.6 1013.1 0.0
20/02:30pm 28.6 24.3 -4.7 11 15.2 SSE 9 17 5 9 1015.6 1013.1 0.0
20/02:00pm 27.8 24.4 -2.1 14 14.2 ESE 6 11 3 6 1015.8 1013.3 0.0
20/01:30pm 26.6 23.1 -3.1 14 13.7 WNW 6 9 3 5 1016.1 1013.7 0.0
20/01:00pm 25.8 21.6 -1.1 17 12.8 N 11 17 6 9 1016.3 1013.9 0.0
20/12:30pm 25.1 21.5 0.6 20 12.0 NE 9 15 5 8 1016.4 1014.0 0.0
20/12:00pm 23.9 19.4 -0.4 20 11.5 ENE 13 20 7 11 1016.8 1014.4 0.0
20/11:30am 22.3 17.8 2.4 27 9.9 NE 15 22 8 12 1016.9 1014.5 0.0
20/11:00am 20.7 16.5 5.5 37 7.9 NE 17 24 9 13 1017.0 1014.6 0.0
20/10:30am 19.5 14.9 6.3 42 6.9 NE 20 26 11 14 1017.0 1014.6 0.0
20/10:00am 17.9 13.0 7.0 49 5.7 NE 22 28 12 15 1016.9 1014.5 0.0
20/09:30am 16.5 11.7 7.2 54 4.9 NE 22 28 12 15 1017.2 1014.8 0.0
20/09:00am 14.8 10.0 7.4 61 3.8 NE 22 28 12 15 1017.4 1015.0 0.2
20/08:30am 13.2 8.4 7.4 68 3.0 NE 22 28 12 15 1017.5 1015.1 -
20/08:00am 11.1 6.8 7.2 77 2.0 NE 19 22 10 12 1017.4 1015.0 -
20/07:30am 9.7 5.7 6.6 81 1.5 NNE 17 19 9 10 1017.4 1015.0 -
20/07:00am 7.9 4.7 7.0 94 0.4 NE 13 15 7 8 1017.1 1014.7 -
20/06:30am 5.2 2.0 5.1 99 0.0 NNE 11 13 6 7 1017.1 1014.7 -
20/06:00am 4.8 2.5 4.7 99 0.0 N 6 7 3 4 1017.2 1014.8 -
20/05:30am 4.4 1.8 4.3 99 0.0 NE 7 9 4 5 1016.8 1014.4 -
20/05:00am 3.5 0.1 1.9 89 0.7 NNE 9 11 5 6 1016.3 1013.9 -
20/04:30am 4.6 1.8 3.4 92 0.5 N 7 9 4 5 1016.4 1014.0 -
20/04:00am 4.9 2.5 4.5 97 0.2 NNE 6 7 3 4 1016.2 1013.8 -
20/03:30am 4.7 3.0 3.8 94 0.4 N 2 7 1 4 1016.3 1013.9 -
20/03:00am 4.8 2.0 3.1 89 0.7 NE 7 9 4 5 1016.3 1013.9 0.0
20/02:30am 5.7 4.3 3.7 87 0.9 CALM 0 0 0 0 1016.5 1014.1 -
20/02:00am 6.3 3.8 3.5 82 1.2 N 6 7 3 4 1016.7 1014.2 -
20/01:30am 8.6 6.6 7.1 90 0.7 N 7 9 4 5 1016.8 1014.4 -
20/01:00am 7.4 6.1 4.0 79 1.6 CALM 0 0 0 0 1017.2 1014.8 -
20/12:30am 9.4 7.4 7.0 85 1.2 N 7 9 4 5 1017.2 1014.8 -
20/12:00am 7.9 6.6 4.1 77 1.7 CALM 0 0 0 0 1017.2 1014.8 -
 
Date/Time
EDT
Temp
°C
App
Temp
°C
Dew
Point
°C
Rel
Hum
%
Delta-T
°C
Wind Press
QNH
hPa
Press
MSL
hPa
Rain since
9am
mm
Dir  Spd
km/h
Gust
km/h
Spd
kts
Gust
kts
19/11:30pm 9.1 8.0 5.3 77 1.8 CALM 0 0 0 0 1017.4 1015.0 -
19/11:00pm 10.1 7.9 6.3 77 1.9 NNE 7 7 4 4 1017.3 1014.9 -
19/10:30pm 10.4 8.2 6.4 76 2.0 NE 7 9 4 5 1017.3 1014.9 -
19/10:00pm 11.7 8.9 7.0 73 2.4 NE 11 13 6 7 1017.1 1014.7 -
19/09:30pm 12.7 10.4 7.4 70 2.7 NE 9 11 5 6 1016.8 1014.4 -
19/09:00pm 13.2 11.4 7.0 66 3.2 NE 6 9 3 5 1016.3 1013.9 -
19/08:30pm 14.3 11.7 7.6 64 3.5 ESE 11 15 6 8 1016.1 1013.7 -
19/08:00pm 15.4 11.9 7.4 59 4.2 ESE 15 22 8 12 1015.8 1013.3 -
19/07:30pm 17.5 13.1 7.3 51 5.4 ESE 20 28 11 15 1014.9 1012.5 -
19/07:00pm 19.8 13.3 6.5 42 7.0 SE 30 41 16 22 1013.6 1011.1 -
19/06:30pm 24.5 15.9 -3.8 15 12.7 SW 32 41 17 22 1012.1 1009.6 -
19/06:00pm 26.5 19.5 -3.1 14 13.7 W 24 35 13 19 1011.6 1009.1 -
19/05:30pm 26.3 20.1 -3.3 14 13.6 W 20 32 11 17 1011.3 1008.8 -
19/05:00pm 26.8 20.6 -2.9 14 13.8 W 20 33 11 18 1011.3 1008.8 -
19/04:30pm 27.2 19.5 -2.6 14 13.9 W 28 43 15 23 1011.5 1009.0 -
19/04:00pm 26.5 - -4.1 13 13.9 - - - - - 1011.4 1008.9 -
19/02:00pm 27.0 18.0 -2.7 14 13.9 W 35 50 19 27 1012.3 1009.8 0.0
19/01:43pm 27.0 18.3 -3.7 13 14.1 W 33 52 18 28 1012.3 1009.8 0.0
19/01:30pm 27.0 17.5 -3.7 13 14.1 W 37 54 20 29 1012.2 1009.7 0.0
19/01:03pm 26.6 16.6 -5.1 12 14.1 W 39 61 21 33 1012.3 1009.8 0.0
19/01:00pm 26.5 17.0 -4.1 13 13.9 W 37 54 20 29 1012.4 1009.9 0.0
19/12:30pm 26.0 15.3 -4.5 13 13.7 W 43 61 23 33 1012.5 1010.0 0.0
19/12:04pm 26.4 16.8 -4.2 13 13.8 W 37 57 20 31 1012.7 1010.2 0.0
19/12:00pm 26.4 17.0 -3.2 14 13.6 W 37 54 20 29 1012.6 1010.1 0.0
19/11:30am 26.0 17.0 -2.6 15 13.3 W 35 54 19 29 1012.7 1010.2 0.0
19/11:00am 24.7 14.6 -2.8 16 12.6 W 41 61 22 33 1012.9 1010.4 0.0
19/10:32am 25.3 15.6 -2.3 16 12.8 W 39 57 21 31 1012.9 1010.4 0.0
19/10:30am 24.5 15.6 -2.1 17 12.3 W 35 52 19 28 1012.8 1010.3 0.0
19/10:08am 24.6 16.3 -2.0 17 12.3 W 32 54 17 29 1013.0 1010.6 0.0
19/10:00am 24.4 16.0 -0.7 19 11.9 W 33 50 18 27 1013.2 1010.7 0.0
19/09:36am 23.5 16.1 -0.7 20 11.4 W 28 46 15 25 1013.3 1010.8 0.0
19/09:30am 23.2 16.6 -0.3 21 11.1 WNW 24 46 13 25 1013.4 1010.9 0.0
19/09:00am 20.9 14.7 -0.4 24 9.9 NW 22 35 12 19 1013.6 1011.1 0.0
19/08:30am 20.2 14.6 0.1 26 9.4 NW 19 35 10 19 1013.7 1011.2 0.0
19/08:00am 19.2 14.5 1.2 30 8.5 NNW 15 24 8 13 1013.8 1011.3 0.0
19/07:30am 17.7 14.1 0.4 31 8.0 NNW 9 13 5 7 1013.8 1011.3 0.0
19/07:00am 16.8 12.5 0.9 34 7.3 NE 13 19 7 10 1013.8 1011.3 0.0
19/06:30am 15.3 10.3 1.1 38 6.5 NNE 17 20 9 11 1013.7 1011.2 0.0
19/06:00am 13.2 8.1 0.9 43 5.5 N 17 20 9 11 1013.6 1011.1 0.0
19/05:30am 13.2 8.4 0.3 41 5.7 NNW 15 19 8 10 1013.4 1010.9 0.0
19/05:00am 13.1 8.3 0.2 41 5.7 NNW 15 19 8 10 1013.3 1010.8 0.0
19/04:30am 13.1 8.7 0.5 42 5.6 NNW 13 15 7 8 1013.3 1010.8 0.0
19/04:00am 13.2 8.0 0.3 41 5.7 N 17 20 9 11 1013.3 1010.8 0.0
19/03:30am 13.9 9.0 -0.2 38 6.2 N 15 17 8 9 1013.4 1010.9 0.0
19/03:00am 15.6 10.7 -0.2 34 7.1 NW 15 20 8 11 1013.6 1011.1 0.0
19/02:30am 15.7 9.9 -0.1 34 7.1 WNW 20 30 11 16 1013.8 1011.3 0.0
19/02:00am 16.5 8.8 -0.2 32 7.5 WNW 30 43 16 23 1013.7 1011.2 0.0
19/01:30am 16.5 8.8 0.2 33 7.4 WNW 30 46 16 25 1013.7 1011.2 0.0
19/01:00am 16.4 8.7 0.1 33 7.4 WNW 30 41 16 22 1013.9 1011.5 0.0
19/12:30am 16.3 9.1 0.4 34 7.2 WNW 28 44 15 24 1014.1 1011.7 0.0
19/12:28am 16.5 9.2 0.2 33 7.4 WNW 28 43 15 23 1014.1 1011.7 0.0
19/12:00am 15.7 11.3 0.3 35 7.0 WNW 13 24 7 13 1014.8 1012.3 0.0
 
Date/Time
EDT
Temp
°C
App
Temp
°C
Dew
Point
°C
Rel
Hum
%
Delta-T
°C
Wind Press
QNH
hPa
Press
MSL
hPa
Rain since
9am
mm
Dir  Spd
km/h
Gust
km/h
Spd
kts
Gust
kts
18/11:30pm 16.0 9.9 0.2 34 7.1 WNW 22 33 12 18 1014.9 1012.5 0.0
18/11:00pm 16.1 10.4 0.7 35 7.0 WNW 20 35 11 19 1015.2 1012.8 0.0
18/10:30pm 16.2 10.1 0.3 34 7.2 WNW 22 35 12 19 1015.3 1012.9 0.0
18/10:00pm 16.2 10.0 -0.1 33 7.3 WNW 22 32 12 17 1015.3 1012.9 0.0
18/09:30pm 16.4 8.7 0.1 33 7.4 WNW 30 41 16 22 1015.2 1012.8 0.0
18/09:00pm 16.6 10.9 0.3 33 7.4 WNW 20 30 11 16 1015.5 1013.0 0.0
18/08:30pm 17.2 11.0 -0.5 30 8.0 W 22 32 12 17 1015.2 1012.8 0.0
18/08:00pm 17.9 11.6 -1.3 27 8.5 W 22 32 12 17 1015.2 1012.8 0.0
18/07:30pm 19.2 12.0 -1.8 24 9.4 W 26 37 14 20 1014.9 1012.5 0.0
18/07:00pm 20.4 13.2 -2.0 22 10.0 W 26 35 14 19 1014.5 1012.0 0.0
18/06:30pm 21.6 13.7 -4.5 17 11.3 WSW 28 37 15 20 1014.2 1011.8 0.0
18/06:00pm 22.6 14.6 -5.3 15 12.0 WSW 28 41 15 22 1014.0 1011.6 0.0
18/05:30pm 22.7 13.9 -6.1 14 12.2 W 32 43 17 23 1014.1 1011.7 0.0
18/05:00pm 23.3 14.7 -3.9 16 12.1 W 32 50 17 27 1014.1 1011.7 0.0
18/04:30pm 23.7 14.9 -4.4 15 12.4 W 33 43 18 23 1014.0 1011.6 0.0
18/04:00pm 23.3 14.1 -4.8 15 12.2 W 35 46 19 25 1014.1 1011.7 0.0
18/03:30pm 24.3 15.6 -3.1 16 12.4 W 33 46 18 25 1014.4 1011.9 0.0
18/03:00pm 24.7 16.9 -3.6 15 12.8 W 28 41 15 22 1014.2 1011.8 0.0
18/02:30pm 25.3 18.7 -3.2 15 13.0 W 22 39 12 21 1014.6 1012.1 0.0
18/02:16pm 24.4 16.4 -5.8 13 13.0 W 28 43 15 23 1014.6 1012.1 0.0
18/02:00pm 24.4 19.1 -3.9 15 12.7 WSW 15 32 8 17 1014.6 1012.1 0.0
18/01:30pm 23.6 17.3 -5.4 14 12.5 W 19 33 10 18 1014.8 1012.3 0.0
18/01:14pm 24.5 17.5 -3.8 15 12.7 WSW 24 46 13 25 1014.8 1012.3 0.0
18/01:00pm 23.8 18.2 -2.7 17 12.1 W 17 33 9 18 1014.9 1012.5 0.0

Other formats

Comma delimited format used in spreadsheet applications
http://www.bom.gov.au/fwo/IDN60801/IDN60801.94921.axf

JavaScript Object Notation format (JSON) in row-major order
http://www.bom.gov.au/fwo/IDN60801/IDN60801.94921.json

Data quality

Most of these data are generated automatically and are frequently updated. Quality checks on data are not normally performed. It is possible for incorrect values to appear. Refer to information at About Latest Weather Observations and please check the disclaimer before using these data.